createdAt,value
2018-08-24T00:00:57.073Z,0.00
2018-08-24T00:01:57.565Z,0.00
2018-08-24T00:02:57.709Z,0.00
2018-08-24T00:03:57.991Z,0.00
2018-08-24T00:04:58.295Z,0.00
2018-08-24T00:05:58.596Z,0.00
2018-08-24T00:06:59.115Z,0.00
2018-08-24T00:07:59.387Z,0.00
2018-08-24T00:09:00.372Z,0.00
2018-08-24T00:10:00.894Z,0.00
2018-08-24T00:11:01.862Z,0.00
2018-08-24T00:12:02.315Z,0.00
2018-08-24T00:13:02.634Z,0.00
2018-08-24T00:14:02.987Z,0.00
2018-08-24T00:15:03.566Z,0.00
2018-08-24T00:16:04.211Z,0.00
2018-08-24T00:17:04.545Z,0.00
2018-08-24T00:18:05.005Z,0.00
2018-08-24T00:19:05.353Z,0.00
2018-08-24T00:20:05.772Z,0.00
2018-08-24T00:21:06.149Z,0.00
2018-08-24T00:22:06.696Z,0.00
2018-08-24T00:23:07.141Z,0.00
2018-08-24T00:24:07.480Z,0.00
2018-08-24T00:25:07.712Z,0.00
2018-08-24T00:26:08.040Z,0.00
2018-08-24T00:27:08.371Z,0.00
2018-08-24T00:28:08.668Z,0.00
2018-08-24T00:29:09.023Z,0.00
2018-08-24T00:30:09.296Z,0.00
2018-08-24T00:31:09.532Z,0.00
2018-08-24T00:32:10.022Z,0.00
2018-08-24T00:33:10.443Z,0.00
2018-08-24T00:34:10.799Z,0.00
2018-08-24T00:35:11.524Z,0.00
2018-08-24T00:36:11.837Z,0.00
2018-08-24T00:37:12.117Z,0.00
2018-08-24T00:38:12.677Z,0.00
2018-08-24T00:39:12.957Z,0.00
2018-08-24T00:40:13.400Z,0.00
2018-08-24T00:40:22.334Z,0.00
2018-08-24T00:41:22.781Z,0.00
2018-08-24T00:42:23.341Z,0.00
2018-08-24T00:43:23.725Z,0.00
2018-08-24T00:44:24.072Z,0.00
2018-08-24T00:45:24.581Z,0.00
2018-08-24T00:46:25.039Z,0.00
2018-08-24T00:47:25.292Z,0.00
2018-08-24T00:48:25.520Z,0.00
2018-08-24T00:49:25.870Z,0.00
2018-08-24T00:50:26.411Z,0.00
2018-08-24T00:51:25.768Z,0.00
2018-08-24T00:52:27.164Z,0.00
2018-08-24T00:53:27.448Z,0.00
2018-08-24T00:54:27.793Z,0.00
2018-08-24T00:55:28.032Z,0.00
2018-08-24T00:56:28.385Z,0.00
2018-08-24T00:57:28.665Z,0.00
2018-08-24T00:58:28.968Z,0.00
2018-08-24T00:59:29.215Z,0.00
2018-08-24T01:00:29.601Z,0.00
2018-08-24T01:01:29.872Z,0.00
2018-08-24T01:02:30.304Z,0.00
2018-08-24T01:03:30.828Z,0.00
2018-08-24T01:04:31.762Z,0.00
2018-08-24T01:05:31.997Z,0.00
2018-08-24T01:06:32.264Z,0.00
2018-08-24T01:07:32.680Z,0.00
2018-08-24T01:08:32.923Z,0.00
2018-08-24T01:09:33.355Z,0.00
2018-08-24T01:10:34.341Z,0.00
2018-08-24T01:11:34.679Z,0.00
2018-08-24T01:12:35.231Z,0.00
2018-08-24T01:13:35.470Z,0.00
2018-08-24T01:14:35.787Z,0.00
2018-08-24T01:15:36.054Z,0.00
2018-08-24T01:16:36.302Z,0.00
2018-08-24T01:17:36.724Z,0.00
2018-08-24T01:18:36.970Z,0.00
2018-08-24T01:19:37.246Z,0.00
2018-08-24T01:20:37.494Z,0.00
2018-08-24T01:21:37.896Z,0.00
2018-08-24T01:22:38.335Z,0.00
2018-08-24T01:23:38.624Z,0.00
2018-08-24T01:24:39.546Z,0.00
2018-08-24T01:24:48.259Z,0.00
2018-08-24T01:25:49.471Z,0.00
2018-08-24T01:26:50.268Z,0.00
2018-08-24T01:27:50.832Z,0.00
2018-08-24T01:28:49.958Z,0.00
2018-08-24T01:29:51.326Z,0.00
2018-08-24T01:30:51.387Z,0.00
2018-08-24T01:31:51.599Z,0.00
2018-08-24T01:32:51.942Z,0.00
2018-08-24T01:33:52.386Z,0.00
2018-08-24T01:34:52.606Z,0.00
2018-08-24T01:35:52.855Z,0.00
2018-08-24T01:36:53.672Z,0.00
2018-08-24T01:37:54.026Z,0.00
2018-08-24T01:38:54.396Z,0.00
2018-08-24T01:39:54.806Z,0.00
2018-08-24T01:40:55.347Z,0.00
2018-08-24T01:41:55.519Z,0.00
2018-08-24T01:42:55.873Z,0.00
2018-08-24T01:43:56.166Z,0.00
2018-08-24T01:44:55.534Z,0.00
2018-08-24T01:45:57.092Z,0.00
2018-08-24T01:46:57.419Z,0.00
2018-08-24T01:47:57.714Z,0.00
2018-08-24T01:48:57.986Z,0.00
2018-08-24T01:49:58.263Z,0.00
2018-08-24T01:50:58.553Z,0.00
2018-08-24T01:51:58.865Z,0.00
2018-08-24T01:52:59.242Z,0.00
2018-08-24T01:54:00.171Z,0.00
2018-08-24T01:55:00.435Z,0.00
2018-08-24T01:56:00.743Z,0.00
2018-08-24T01:57:00.996Z,0.00
2018-08-24T01:58:01.367Z,0.00
2018-08-24T01:59:01.777Z,0.00
2018-08-24T02:00:00.802Z,0.00
2018-08-24T02:01:02.422Z,0.00
2018-08-24T02:02:02.658Z,0.00
2018-08-24T02:03:02.907Z,0.00
2018-08-24T02:04:03.467Z,0.00
2018-08-24T02:05:03.968Z,0.00
2018-08-24T02:06:04.779Z,0.00
2018-08-24T02:07:05.023Z,0.00
2018-08-24T02:08:05.314Z,0.00
2018-08-24T02:09:05.718Z,0.00
2018-08-24T02:09:13.776Z,0.00
2018-08-24T02:10:14.956Z,0.00
2018-08-24T02:11:15.399Z,0.00
2018-08-24T02:12:16.358Z,0.00
2018-08-24T02:13:16.911Z,0.00
2018-08-24T02:14:17.772Z,0.00
2018-08-24T02:15:16.963Z,0.00
2018-08-24T02:16:18.177Z,0.00
2018-08-24T02:17:18.733Z,0.00
2018-08-24T02:18:18.967Z,0.00
2018-08-24T02:19:19.862Z,0.00
2018-08-24T02:20:20.866Z,0.00
2018-08-24T02:21:21.245Z,0.00
2018-08-24T02:22:21.539Z,0.00
2018-08-24T02:23:22.469Z,0.00
2018-08-24T02:24:23.357Z,0.00
2018-08-24T02:25:23.559Z,0.00
2018-08-24T02:26:24.077Z,0.00
2018-08-24T02:27:24.374Z,0.00
2018-08-24T02:28:24.771Z,0.00
2018-08-24T02:29:25.046Z,0.00
2018-08-24T02:30:25.904Z,0.00
2018-08-24T02:31:26.290Z,0.00
2018-08-24T02:32:26.650Z,0.00
2018-08-24T02:33:26.913Z,0.00
2018-08-24T02:34:27.151Z,0.00
2018-08-24T02:35:27.503Z,0.00
2018-08-24T02:36:28.329Z,0.00
2018-08-24T02:37:28.564Z,0.00
2018-08-24T02:38:28.896Z,0.00
2018-08-24T02:39:29.128Z,0.00
2018-08-24T02:40:29.355Z,0.00
2018-08-24T02:41:29.826Z,0.00
2018-08-24T02:42:29.996Z,0.00
2018-08-24T02:43:30.265Z,0.00
2018-08-24T02:44:30.753Z,0.00
2018-08-24T02:45:31.685Z,0.00
2018-08-24T02:46:32.091Z,0.00
2018-08-24T02:47:32.316Z,0.00
2018-08-24T02:48:32.634Z,0.00
2018-08-24T02:49:32.849Z,0.00
2018-08-24T02:50:33.143Z,0.00
2018-08-24T02:51:33.533Z,0.00
2018-08-24T02:52:34.010Z,0.00
2018-08-24T02:53:33.203Z,0.00
2018-08-24T02:54:34.416Z,0.00
2018-08-24T02:54:42.484Z,0.00
2018-08-24T02:55:43.823Z,0.00
2018-08-24T02:56:44.078Z,0.00
2018-08-24T02:57:44.328Z,0.00
2018-08-24T02:58:44.753Z,0.00
2018-08-24T02:59:44.943Z,0.00
2018-08-24T03:00:45.184Z,0.00
2018-08-24T03:01:45.428Z,0.00
2018-08-24T03:02:45.685Z,0.00
2018-08-24T03:03:45.910Z,0.00
2018-08-24T03:04:46.180Z,0.00
2018-08-24T03:05:46.354Z,0.00
2018-08-24T03:06:46.635Z,0.00
2018-08-24T03:07:46.875Z,0.00
2018-08-24T03:08:47.564Z,0.00
2018-08-24T03:09:47.832Z,0.00
2018-08-24T03:10:48.080Z,0.00
2018-08-24T03:11:48.338Z,0.00
2018-08-24T03:12:48.553Z,0.00
2018-08-24T03:13:48.823Z,0.00
2018-08-24T03:14:49.039Z,0.00
2018-08-24T03:15:49.328Z,0.00
2018-08-24T03:16:49.621Z,0.00
2018-08-24T03:17:49.883Z,0.00
2018-08-24T03:18:50.257Z,0.00
2018-08-24T03:19:50.563Z,0.00
2018-08-24T03:20:51.032Z,0.00
2018-08-24T03:21:51.373Z,0.00
2018-08-24T03:22:51.647Z,0.00
2018-08-24T03:23:51.875Z,0.00
2018-08-24T03:24:52.151Z,0.00
2018-08-24T03:25:51.770Z,0.00
2018-08-24T03:26:53.013Z,0.00
2018-08-24T03:27:53.487Z,0.00
2018-08-24T03:28:53.867Z,0.00
2018-08-24T03:29:54.150Z,0.00
2018-08-24T03:30:54.529Z,0.00
2018-08-24T03:31:54.866Z,0.00
2018-08-24T03:32:55.158Z,0.00
2018-08-24T03:33:55.406Z,0.00
2018-08-24T03:34:55.601Z,0.00
2018-08-24T03:35:55.803Z,0.00
2018-08-24T03:36:56.045Z,0.00
2018-08-24T03:37:56.237Z,0.00
2018-08-24T03:38:56.537Z,0.05
2018-08-24T03:39:05.335Z,0.05
2018-08-24T03:40:06.538Z,0.05
2018-08-24T03:41:06.928Z,0.05
2018-08-24T03:42:07.248Z,0.05
2018-08-24T03:43:07.635Z,0.05
2018-08-24T03:44:07.976Z,0.05
2018-08-24T03:45:08.162Z,0.09
2018-08-24T03:46:08.509Z,0.09
2018-08-24T03:47:08.771Z,0.14
2018-08-24T03:48:09.043Z,0.18
2018-08-24T03:49:09.505Z,0.18
2018-08-24T03:50:09.781Z,0.22
2018-08-24T03:51:10.080Z,0.27
2018-08-24T03:52:10.360Z,0.31
2018-08-24T03:53:10.706Z,0.41
2018-08-24T03:54:10.219Z,0.45
2018-08-24T03:55:11.438Z,0.54
2018-08-24T03:56:11.724Z,0.63
2018-08-24T03:57:11.949Z,0.81
2018-08-24T03:58:12.365Z,0.94
2018-08-24T03:59:13.139Z,1.12
2018-08-24T04:00:13.823Z,1.39
2018-08-24T04:01:14.401Z,1.71
2018-08-24T04:02:14.729Z,1.98
2018-08-24T04:03:15.232Z,2.34
2018-08-24T04:04:15.599Z,2.79
2018-08-24T04:05:15.895Z,3.33
2018-08-24T04:06:15.321Z,3.96
2018-08-24T04:07:16.538Z,4.72
2018-08-24T04:08:16.901Z,5.58
2018-08-24T04:09:17.230Z,6.57
2018-08-24T04:10:16.435Z,7.74
2018-08-24T04:11:17.739Z,9.18
2018-08-24T04:12:18.052Z,10.76
2018-08-24T04:13:19.011Z,12.51
2018-08-24T04:14:19.299Z,14.58
2018-08-24T04:15:19.750Z,17.10
2018-08-24T04:16:20.025Z,20.07
2018-08-24T04:17:20.283Z,23.40
2018-08-24T04:18:20.760Z,27.36
2018-08-24T04:19:21.352Z,31.50
2018-08-24T04:20:21.874Z,36.54
2018-08-24T04:21:22.135Z,42.12
2018-08-24T04:22:22.454Z,47.52
2018-08-24T04:23:22.677Z,54.36
2018-08-24T04:24:22.989Z,60.48
2018-08-24T04:25:23.266Z,66.60
2018-08-24T04:25:33.080Z,68.40
2018-08-24T04:26:32.286Z,75.24
2018-08-24T04:27:33.717Z,81.72
2018-08-24T04:28:33.940Z,88.56
2018-08-24T04:29:34.638Z,96.48
2018-08-24T04:30:34.879Z,103.68
2018-08-24T04:31:35.108Z,112.32
2018-08-24T04:32:35.437Z,121.68
2018-08-24T04:33:35.648Z,131.76
2018-08-24T04:34:36.595Z,141.84
2018-08-24T04:35:36.869Z,153.36
2018-08-24T04:36:36.902Z,164.16
2018-08-24T04:37:37.621Z,175.68
2018-08-24T04:38:38.170Z,188.64
2018-08-24T04:39:38.384Z,203.04
2018-08-24T04:40:38.626Z,218.88
2018-08-24T04:41:38.846Z,230.40
2018-08-24T04:43:05.794Z,250.56
2018-08-24T04:44:05.732Z,269.28
2018-08-24T04:45:07.224Z,289.44
2018-08-24T04:46:07.480Z,309.60
2018-08-24T04:47:07.789Z,331.20
2018-08-24T04:48:08.105Z,349.92
2018-08-24T04:49:08.906Z,367.20
2018-08-24T04:50:09.223Z,380.16
2018-08-24T04:51:09.940Z,391.68
2018-08-24T04:52:10.260Z,400.32
2018-08-24T04:53:10.732Z,411.84
2018-08-24T04:54:11.080Z,432.00
2018-08-24T04:55:11.353Z,460.80
2018-08-24T04:56:11.636Z,498.24
2018-08-24T04:57:11.909Z,538.56
2018-08-24T04:58:12.436Z,578.88
2018-08-24T04:59:11.725Z,616.32
2018-08-24T05:00:12.962Z,653.76
2018-08-24T05:01:12.327Z,705.60
2018-08-24T05:02:13.779Z,777.60
2018-08-24T05:03:14.298Z,869.76
2018-08-24T05:04:14.621Z,950.40
2018-08-24T05:05:15.307Z,1105.92
2018-08-24T05:06:15.550Z,1215.36
2018-08-24T05:07:15.775Z,1353.60
2018-08-24T05:08:16.274Z,1497.60
2018-08-24T05:09:16.547Z,1647.36
2018-08-24T05:10:16.809Z,1774.08
2018-08-24T05:11:17.086Z,1900.80
2018-08-24T05:12:17.470Z,2085.12
2018-08-24T05:13:18.141Z,2280.96
2018-08-24T05:14:18.548Z,2476.80
2018-08-24T05:15:18.910Z,2615.04
2018-08-24T05:16:19.328Z,2649.60
2018-08-24T05:17:19.640Z,2580.48
2018-08-24T05:18:19.848Z,2522.88
2018-08-24T05:19:20.094Z,2499.84
2018-08-24T05:20:20.377Z,2453.76
2018-08-24T05:21:20.810Z,2396.16
2018-08-24T05:22:20.024Z,2361.60
2018-08-24T05:23:21.234Z,2419.20
2018-08-24T05:24:21.455Z,2488.32
2018-08-24T05:25:21.709Z,2568.96
2018-08-24T05:26:22.186Z,2638.08
2018-08-24T05:27:22.676Z,2661.12
2018-08-24T05:28:22.909Z,2626.56
2018-08-24T05:29:23.276Z,2580.48
2018-08-24T05:30:23.545Z,2511.36
2018-08-24T05:30:31.656Z,2511.36
2018-08-24T05:31:32.865Z,2453.76
2018-08-24T05:32:33.106Z,2327.04
2018-08-24T05:33:33.355Z,2246.40
2018-08-24T05:34:33.617Z,2165.76
2018-08-24T05:35:34.037Z,2073.60
2018-08-24T05:36:33.217Z,1923.84
2018-08-24T05:37:34.493Z,1739.52
2018-08-24T05:38:34.689Z,1612.80
2018-08-24T05:39:35.213Z,1578.24
2018-08-24T05:40:34.350Z,1624.32
2018-08-24T05:41:36.073Z,1704.96
2018-08-24T05:42:36.447Z,1820.16
2018-08-24T05:43:36.705Z,1981.44
2018-08-24T05:44:36.978Z,2165.76
2018-08-24T05:45:37.301Z,2327.04
2018-08-24T05:46:37.548Z,2453.76
2018-08-24T05:47:37.844Z,2534.40
2018-08-24T05:48:38.483Z,2545.92
2018-08-24T05:49:37.767Z,2465.28
2018-08-24T05:50:39.070Z,2338.56
2018-08-24T05:51:39.632Z,2108.16
2018-08-24T05:52:39.900Z,1820.16
2018-08-24T05:53:40.137Z,1543.68
2018-08-24T05:54:40.502Z,1405.44
2018-08-24T05:55:40.758Z,2039.04
2018-08-24T05:56:40.011Z,1255.68
2018-08-24T05:57:41.259Z,1140.48
2018-08-24T05:58:41.585Z,1042.56
2018-08-24T05:59:42.249Z,1013.76
2018-08-24T06:00:43.147Z,990.72
2018-08-24T06:01:43.669Z,1008.00
2018-08-24T06:02:43.891Z,1071.36
2018-08-24T06:03:44.450Z,1140.48
2018-08-24T06:04:44.967Z,1146.24
2018-08-24T06:05:45.351Z,1105.92
2018-08-24T06:06:44.566Z,1071.36
2018-08-24T06:07:45.827Z,1071.36
2018-08-24T06:08:46.058Z,1111.68
2018-08-24T06:09:46.326Z,1198.08
2018-08-24T06:10:46.593Z,1353.60
2018-08-24T06:11:46.982Z,1543.68
2018-08-24T06:12:47.274Z,1716.48
2018-08-24T06:13:47.504Z,1820.16
2018-08-24T06:14:47.696Z,1820.16
2018-08-24T06:15:47.934Z,1820.16
2018-08-24T06:16:47.182Z,1912.32
2018-08-24T06:17:47.331Z,1981.44
2018-08-24T06:18:48.588Z,1981.44
2018-08-24T06:19:48.824Z,1958.40
2018-08-24T06:19:57.471Z,1946.88
2018-08-24T06:20:58.821Z,1866.24
2018-08-24T06:21:59.263Z,1716.48
2018-08-24T06:22:59.687Z,1612.80
2018-08-24T06:24:00.106Z,1566.72
2018-08-24T06:24:59.506Z,1578.24
2018-08-24T06:26:00.827Z,1624.32
2018-08-24T06:27:01.451Z,1647.36
2018-08-24T06:28:00.712Z,1681.92
2018-08-24T06:29:01.958Z,1923.84
2018-08-24T06:30:02.608Z,2338.56
2018-08-24T06:31:02.900Z,2649.60
2018-08-24T06:32:03.149Z,2787.84
2018-08-24T06:33:03.166Z,2799.36
2018-08-24T06:34:03.428Z,2753.28
2018-08-24T06:35:03.632Z,2776.32
2018-08-24T06:36:03.969Z,2799.36
2018-08-24T06:37:03.858Z,2776.32
2018-08-24T06:38:04.255Z,2661.12
2018-08-24T06:39:05.477Z,2545.92
2018-08-24T06:40:05.738Z,2534.40
2018-08-24T06:41:06.004Z,2707.20
2018-08-24T06:42:06.333Z,2995.20
2018-08-24T06:43:06.628Z,3225.60
2018-08-24T06:44:06.905Z,3386.88
2018-08-24T06:45:07.295Z,3386.88
2018-08-24T06:46:07.521Z,3156.48
2018-08-24T06:47:07.889Z,2799.36
2018-08-24T06:48:07.061Z,2949.12
2018-08-24T06:49:08.405Z,2995.20
2018-08-24T06:50:08.759Z,3018.24
2018-08-24T06:51:09.077Z,2995.20
2018-08-24T06:52:09.324Z,3340.80
2018-08-24T06:53:09.712Z,3340.80
2018-08-24T06:54:08.868Z,3271.68
2018-08-24T06:55:10.119Z,3179.52
2018-08-24T06:56:10.442Z,3018.24
2018-08-24T06:57:10.719Z,2903.04
2018-08-24T06:58:10.989Z,2856.96
2018-08-24T06:59:11.214Z,2845.44
2018-08-24T07:00:11.447Z,2903.04
2018-08-24T07:01:11.681Z,2949.12
2018-08-24T07:02:11.860Z,2891.52
2018-08-24T07:03:12.247Z,2868.48
2018-08-24T07:04:12.556Z,2891.52
2018-08-24T07:05:12.761Z,2833.92
2018-08-24T07:06:13.026Z,2856.96
2018-08-24T07:07:13.360Z,3041.28
2018-08-24T07:08:13.777Z,3317.76
2018-08-24T07:09:14.063Z,3594.24
2018-08-24T07:09:22.918Z,3640.32
2018-08-24T07:10:24.101Z,3916.80
2018-08-24T07:11:24.479Z,4239.36
2018-08-24T07:12:24.849Z,4654.08
2018-08-24T07:13:24.230Z,5160.96
2018-08-24T07:14:25.524Z,5529.60
2018-08-24T07:15:25.880Z,5621.76
2018-08-24T07:16:26.142Z,5460.48
2018-08-24T07:17:26.475Z,5276.16
2018-08-24T07:18:26.646Z,5022.72
2018-08-24T07:19:27.039Z,4815.36
2018-08-24T07:20:27.330Z,4861.44
2018-08-24T07:21:27.594Z,5345.28
2018-08-24T07:22:28.155Z,5990.40
2018-08-24T07:23:28.381Z,6405.12
2018-08-24T07:24:28.858Z,6635.52
2018-08-24T07:25:29.251Z,6819.84
2018-08-24T07:26:29.543Z,7050.24
2018-08-24T07:27:29.809Z,7050.24
2018-08-24T07:28:30.003Z,7004.16
2018-08-24T07:29:30.247Z,6681.60
2018-08-24T07:30:30.503Z,6405.12
2018-08-24T07:31:30.797Z,6082.56
2018-08-24T07:32:31.301Z,5506.56
2018-08-24T07:33:31.909Z,4769.28
2018-08-24T07:34:32.232Z,4147.20
2018-08-24T07:35:32.547Z,3709.44
2018-08-24T07:36:32.793Z,3294.72
2018-08-24T07:37:33.021Z,2972.16
2018-08-24T07:38:33.270Z,2776.32
2018-08-24T07:39:33.578Z,2638.08
2018-08-24T07:40:33.866Z,2661.12
2018-08-24T07:41:34.237Z,2764.80
2018-08-24T07:42:33.160Z,2972.16
2018-08-24T07:43:34.513Z,3432.96
2018-08-24T07:44:34.812Z,4032.00
2018-08-24T07:45:35.040Z,4700.16
2018-08-24T07:46:35.300Z,5253.12
2018-08-24T07:47:35.606Z,5898.24
2018-08-24T07:48:35.000Z,7050.24
2018-08-24T07:49:36.251Z,8386.56
2018-08-24T07:50:36.468Z,9216.00
2018-08-24T07:51:36.887Z,10045.44
2018-08-24T07:52:37.325Z,10229.76
2018-08-24T07:53:37.987Z,9907.20
2018-08-24T07:54:38.220Z,9768.96
2018-08-24T07:55:38.456Z,9953.28
2018-08-24T07:55:47.216Z,10045.44
2018-08-24T07:56:47.900Z,10920.96
2018-08-24T07:57:48.151Z,11888.64
2018-08-24T07:58:48.602Z,13178.88
2018-08-24T07:59:48.812Z,13731.84
2018-08-24T08:00:49.034Z,13916.16
2018-08-24T08:01:49.457Z,14192.64
2018-08-24T08:02:49.689Z,15482.88
2018-08-24T08:03:49.983Z,17049.60
2018-08-24T08:04:50.429Z,19353.60
2018-08-24T08:05:50.699Z,23777.28
2018-08-24T08:06:50.926Z,16496.64
2018-08-24T08:07:51.124Z,15298.56
2018-08-24T08:08:51.467Z,15943.68
2018-08-24T08:09:51.763Z,14376.96
2018-08-24T08:10:52.133Z,14561.28
2018-08-24T08:11:52.368Z,15206.40
2018-08-24T08:12:52.610Z,14192.64
2018-08-24T08:13:52.994Z,15022.08
2018-08-24T08:14:53.020Z,17233.92
2018-08-24T08:15:53.253Z,18524.16
2018-08-24T08:16:53.504Z,19169.28
2018-08-24T08:17:53.744Z,21196.80
2018-08-24T08:18:54.172Z,21749.76
2018-08-24T08:19:54.574Z,25067.52
2018-08-24T08:20:54.935Z,26910.72
2018-08-24T08:21:55.346Z,24698.88
2018-08-24T08:22:55.663Z,21934.08
2018-08-24T08:23:56.136Z,14653.44
2018-08-24T08:24:56.392Z,10045.44
2018-08-24T08:25:56.820Z,7326.72
2018-08-24T08:26:57.124Z,5898.24
2018-08-24T08:27:57.405Z,5045.76
2018-08-24T08:28:57.786Z,4815.36
2018-08-24T08:29:58.019Z,4976.64
2018-08-24T08:30:58.315Z,4907.52
2018-08-24T08:31:58.548Z,5829.12
2018-08-24T08:32:58.773Z,6405.12
2018-08-24T08:33:59.318Z,5944.32
2018-08-24T08:34:59.888Z,5990.40
2018-08-24T08:36:00.264Z,6266.88
2018-08-24T08:37:00.700Z,6220.80
2018-08-24T08:38:00.956Z,7004.16
2018-08-24T08:39:01.320Z,9123.84
2018-08-24T08:40:00.482Z,10598.40
2018-08-24T08:41:02.117Z,10460.16
2018-08-24T08:41:10.198Z,10414.08
2018-08-24T08:42:11.657Z,10229.76
2018-08-24T08:43:12.102Z,10598.40
2018-08-24T08:44:12.428Z,11013.12
2018-08-24T08:45:12.831Z,10552.32
2018-08-24T08:46:12.299Z,9262.08
2018-08-24T08:47:13.812Z,8432.64
2018-08-24T08:48:14.467Z,8755.20
2018-08-24T08:49:14.734Z,10321.92
2018-08-24T08:50:15.017Z,11151.36
2018-08-24T08:51:15.310Z,11612.16
2018-08-24T08:52:15.952Z,12165.12
2018-08-24T08:53:16.206Z,12625.92
2018-08-24T08:54:17.036Z,12902.40
2018-08-24T08:55:17.224Z,14837.76
2018-08-24T08:56:17.462Z,14745.60
2018-08-24T08:57:17.548Z,14561.28
2018-08-24T08:58:18.092Z,14192.64
2018-08-24T08:59:18.942Z,14745.60
2018-08-24T09:00:19.414Z,13547.52
2018-08-24T09:01:19.972Z,12810.24
2018-08-24T09:02:20.276Z,12257.28
2018-08-24T09:03:20.524Z,12165.12
2018-08-24T09:04:20.755Z,11473.92
2018-08-24T09:05:20.784Z,11335.68
2018-08-24T09:06:21.231Z,12533.76
2018-08-24T09:07:22.414Z,12165.12
2018-08-24T09:08:20.751Z,13639.68
2018-08-24T09:09:21.973Z,15759.36
2018-08-24T09:10:22.250Z,18063.36
2018-08-24T09:11:23.011Z,19998.72
2018-08-24T09:12:23.455Z,23316.48
2018-08-24T09:13:23.741Z,16773.12
2018-08-24T09:14:23.981Z,14376.96
2018-08-24T09:15:24.176Z,12625.92
2018-08-24T09:16:24.375Z,14100.48
2018-08-24T09:17:24.645Z,17694.72
2018-08-24T09:18:25.111Z,17418.24
2018-08-24T09:19:24.489Z,24883.20
2018-08-24T09:20:25.808Z,20183.04
2018-08-24T09:21:26.084Z,20920.32
2018-08-24T09:22:27.059Z,16496.64
2018-08-24T09:23:27.316Z,16312.32
2018-08-24T09:24:27.558Z,15390.72
2018-08-24T09:25:27.967Z,16220.16
2018-08-24T09:26:27.203Z,18247.68
2018-08-24T09:27:28.522Z,22394.88
2018-08-24T09:27:37.235Z,21934.08
2018-08-24T09:28:37.836Z,18339.84
2018-08-24T09:29:38.058Z,13731.84
2018-08-24T09:30:38.388Z,14284.80
2018-08-24T09:31:38.566Z,12994.56
2018-08-24T09:32:39.086Z,14100.48
2018-08-24T09:33:38.271Z,14837.76
2018-08-24T09:34:39.574Z,21196.80
2018-08-24T09:35:38.730Z,21749.76
2018-08-24T09:36:39.966Z,16588.80
2018-08-24T09:37:40.170Z,23408.64
2018-08-24T09:38:40.407Z,14837.76
2018-08-24T09:39:40.570Z,14561.28
2018-08-24T09:40:40.878Z,13824.00
2018-08-24T09:41:41.225Z,11520.00
2018-08-24T09:42:41.784Z,9123.84
2018-08-24T09:43:42.009Z,7787.52
2018-08-24T09:44:42.403Z,7372.80
2018-08-24T09:45:42.668Z,6865.92
2018-08-24T09:46:43.158Z,6312.96
2018-08-24T09:47:43.564Z,6773.76
2018-08-24T09:48:43.776Z,8663.04
2018-08-24T09:49:44.410Z,11473.92
2018-08-24T09:50:44.671Z,36126.72
2018-08-24T09:51:45.031Z,22026.24
2018-08-24T09:52:45.507Z,12441.60
2018-08-24T09:53:45.913Z,13547.52
2018-08-24T09:54:46.194Z,18247.68
2018-08-24T09:55:46.439Z,53821.44
2018-08-24T09:56:47.190Z,45158.40
2018-08-24T09:57:46.960Z,38154.24
2018-08-24T09:58:48.146Z,39628.80
2018-08-24T09:59:48.459Z,31334.40
2018-08-24T10:00:49.328Z,33177.60
2018-08-24T10:01:49.868Z,50872.32
2018-08-24T10:02:50.190Z,54927.36
2018-08-24T10:03:49.759Z,26173.44
2018-08-24T10:04:51.556Z,28938.24
2018-08-24T10:05:51.811Z,47001.60
2018-08-24T10:06:52.211Z,15298.56
2018-08-24T10:07:51.507Z,13916.16
2018-08-24T10:08:52.803Z,13363.20
2018-08-24T10:09:53.140Z,19353.60
2018-08-24T10:10:53.329Z,56033.28
2018-08-24T10:11:53.550Z,57507.84
2018-08-24T10:12:54.028Z,59719.68
2018-08-24T10:13:54.208Z,57507.84
2018-08-24T10:14:54.518Z,56401.92
2018-08-24T10:15:03.389Z,38891.52
2018-08-24T10:16:03.712Z,16680.96
2018-08-24T10:17:04.090Z,54190.08
2018-08-24T10:18:04.314Z,18708.48
2018-08-24T10:19:04.511Z,56033.28
2018-08-24T10:20:04.909Z,59351.04
2018-08-24T10:21:05.255Z,59719.68
2018-08-24T10:22:05.923Z,47001.60
2018-08-24T10:23:06.512Z,56770.56
2018-08-24T10:24:06.717Z,25804.80
2018-08-24T10:25:06.931Z,42946.56
2018-08-24T10:26:07.045Z,28938.24
2018-08-24T10:27:07.237Z,55296.00
2018-08-24T10:28:07.490Z,12625.92
2018-08-24T10:29:07.764Z,13086.72
2018-08-24T10:30:07.350Z,15943.68
2018-08-24T10:31:08.538Z,15114.24
2018-08-24T10:32:08.744Z,49766.40
2018-08-24T10:33:09.026Z,49397.76
2018-08-24T10:34:09.300Z,18339.84
2018-08-24T10:35:09.942Z,55296.00
2018-08-24T10:36:10.211Z,54558.72
2018-08-24T10:37:10.428Z,51609.60
2018-08-24T10:38:10.783Z,54927.36
2018-08-24T10:39:11.439Z,56401.92
2018-08-24T10:40:10.755Z,44052.48
2018-08-24T10:41:12.110Z,15206.40
2018-08-24T10:42:12.407Z,15022.08
2018-08-24T10:43:12.888Z,18892.80
2018-08-24T10:44:13.191Z,48291.84
2018-08-24T10:45:13.444Z,42762.24
2018-08-24T10:46:13.903Z,61931.52
2018-08-24T10:47:14.694Z,57139.20
2018-08-24T10:48:14.379Z,22026.24
2018-08-24T10:49:15.628Z,53452.80
2018-08-24T10:50:15.895Z,22579.20
2018-08-24T10:51:16.221Z,46264.32
2018-08-24T10:52:15.542Z,59351.04
2018-08-24T10:53:17.117Z,22763.52
2018-08-24T10:54:17.392Z,61931.52
2018-08-24T10:55:17.797Z,30228.48
2018-08-24T10:56:18.274Z,16128.00
2018-08-24T10:57:18.832Z,15022.08
2018-08-24T10:58:19.071Z,47001.60
2018-08-24T10:59:19.690Z,11888.64
2018-08-24T11:00:20.393Z,11750.40
2018-08-24T11:00:29.106Z,11704.32
2018-08-24T11:01:30.298Z,11658.24
2018-08-24T11:02:31.271Z,12349.44
2018-08-24T11:03:31.998Z,14284.80
2018-08-24T11:04:32.380Z,13547.52
2018-08-24T11:05:33.085Z,14745.60
2018-08-24T11:06:32.426Z,16035.84
2018-08-24T11:07:33.839Z,17602.56
2018-08-24T11:08:33.192Z,19353.60
2018-08-24T11:09:34.443Z,35573.76
2018-08-24T11:10:34.734Z,31887.36
2018-08-24T11:11:35.118Z,22026.24
2018-08-24T11:12:34.506Z,44421.12
2018-08-24T11:13:35.981Z,47923.20
2018-08-24T11:14:36.459Z,34283.52
2018-08-24T11:15:36.701Z,32256.00
2018-08-24T11:16:37.227Z,39628.80
2018-08-24T11:17:37.646Z,33730.56
2018-08-24T11:18:38.350Z,33546.24
2018-08-24T11:19:38.555Z,22302.72
2018-08-24T11:20:38.754Z,21288.96
2018-08-24T11:21:39.030Z,22763.52
2018-08-24T11:22:39.398Z,18247.68
2018-08-24T11:23:39.737Z,16220.16
2018-08-24T11:24:40.126Z,16035.84
2018-08-24T11:25:40.704Z,16128.00
2018-08-24T11:26:40.960Z,16312.32
2018-08-24T11:27:40.293Z,16404.48
2018-08-24T11:28:41.695Z,17233.92
2018-08-24T11:29:40.965Z,19906.56
2018-08-24T11:30:42.613Z,30597.12
2018-08-24T11:31:42.927Z,36679.68
2018-08-24T11:32:43.138Z,45527.04
2018-08-24T11:33:43.727Z,33361.92
2018-08-24T11:34:44.020Z,29122.56
2018-08-24T11:35:44.608Z,24330.24
2018-08-24T11:36:44.990Z,24883.20
2018-08-24T11:37:45.435Z,26357.76
2018-08-24T11:38:46.297Z,24330.24
2018-08-24T11:39:46.626Z,19169.28
2018-08-24T11:40:46.889Z,20275.20
2018-08-24T11:41:47.735Z,15851.52
2018-08-24T11:42:47.197Z,19998.72
2018-08-24T11:43:48.616Z,16312.32
2018-08-24T11:44:49.227Z,17049.60
2018-08-24T11:45:49.517Z,18339.84
2018-08-24T11:46:49.884Z,13086.72
2018-08-24T11:47:50.176Z,12810.24
2018-08-24T11:48:49.317Z,12902.40
2018-08-24T11:49:50.640Z,13547.52
2018-08-24T11:49:58.722Z,14837.76
2018-08-24T11:50:59.876Z,12257.28
2018-08-24T11:52:00.248Z,11520.00
2018-08-24T11:53:01.036Z,11289.60
2018-08-24T11:54:01.491Z,12810.24
2018-08-24T11:55:01.040Z,14008.32
2018-08-24T11:56:02.604Z,14561.28
2018-08-24T11:57:03.048Z,13639.68
2018-08-24T11:58:03.528Z,12625.92
2018-08-24T11:59:03.850Z,12072.96
2018-08-24T12:00:04.521Z,12441.60
2018-08-24T12:01:05.148Z,14192.64
2018-08-24T12:02:05.527Z,16404.48
2018-08-24T12:03:04.834Z,16128.00
2018-08-24T12:04:06.330Z,16957.44
2018-08-24T12:05:06.670Z,16220.16
2018-08-24T12:06:07.126Z,16220.16
2018-08-24T12:07:07.758Z,14376.96
2018-08-24T12:08:08.245Z,14561.28
2018-08-24T12:09:07.731Z,25251.84
2018-08-24T12:10:09.296Z,19353.60
2018-08-24T12:11:09.833Z,24883.20
2018-08-24T12:12:10.509Z,44421.12
2018-08-24T12:13:10.383Z,23777.28
2018-08-24T12:14:11.749Z,49029.12
2018-08-24T12:15:11.298Z,47923.20
2018-08-24T12:16:12.959Z,50872.32